createdAt,value
2022-12-27T00:08:41.579Z,2.1
2022-12-27T00:23:50.998Z,2.9
2022-12-27T00:39:01.691Z,2.8
2022-12-27T00:54:10.368Z,2.9
2022-12-27T01:09:20.016Z,3.5
2022-12-27T01:24:29.531Z,3.6
2022-12-27T01:39:38.942Z,4.4
2022-12-27T01:54:48.444Z,4.8
2022-12-27T02:09:57.545Z,4.3
2022-12-27T02:25:07.363Z,4.4
2022-12-27T02:40:18.125Z,4.7
2022-12-27T02:55:27.627Z,5.3
2022-12-27T03:10:37.249Z,4.8
2022-12-27T03:25:47.024Z,4.1
2022-12-27T03:40:56.137Z,5.7
2022-12-27T03:56:05.529Z,5.8
2022-12-27T04:11:14.840Z,6.2
2022-12-27T04:26:24.497Z,5.6
2022-12-27T04:41:38.993Z,8.1
2022-12-27T04:56:48.303Z,9.1
2022-12-27T05:11:58.667Z,9.6
2022-12-27T05:27:08.178Z,7.9
2022-12-27T05:42:17.653Z,8.1
2022-12-27T05:57:27.401Z,9.1
2022-12-27T06:12:36.778Z,9
2022-12-27T06:27:46.875Z,7.5
2022-12-27T06:42:56.910Z,7.8
2022-12-27T06:58:06.445Z,7.2
2022-12-27T07:13:16.413Z,6.9
2022-12-27T07:28:26.088Z,6.4
2022-12-27T07:43:35.580Z,7.1
2022-12-27T07:58:45.231Z,7
2022-12-27T08:13:55.077Z,7.8
2022-12-27T08:29:04.911Z,7.1
2022-12-27T08:44:14.454Z,7.7
2022-12-27T08:59:24.403Z,8.1
2022-12-27T09:14:34.219Z,6.9
2022-12-27T09:29:48.762Z,8.4
2022-12-27T09:44:58.992Z,8.3
2022-12-27T10:00:08.607Z,8
2022-12-27T10:15:17.825Z,7.6
2022-12-27T10:30:26.954Z,8
2022-12-27T10:45:36.670Z,7.9
2022-12-27T11:00:47.180Z,4.9
2022-12-27T11:15:59.387Z,5.6
2022-12-27T11:31:09.801Z,7.5
2022-12-27T11:46:19.776Z,7.7
2022-12-27T12:01:30.034Z,7.6
2022-12-27T12:16:40.051Z,6.9
2022-12-27T12:31:50.132Z,6.4
2022-12-27T12:46:59.780Z,6
2022-12-27T13:02:10.005Z,6.5
2022-12-27T13:17:20.685Z,6.9
2022-12-27T13:32:29.978Z,6.1
2022-12-27T13:47:39.453Z,5.6
2022-12-27T14:02:49.258Z,6.8
2022-12-27T14:17:58.696Z,6.5
2022-12-27T14:33:07.883Z,7.2
2022-12-27T14:48:17.446Z,7.5
2022-12-27T15:03:41.061Z,6.6
2022-12-27T15:18:50.920Z,6.6
2022-12-27T15:34:00.449Z,8.4
2022-12-27T15:49:09.895Z,11.7
2022-12-27T16:04:19.289Z,14.5
2022-12-27T16:19:28.609Z,14.1
2022-12-27T16:34:38.630Z,13.1
2022-12-27T16:49:47.754Z,15.8
2022-12-27T17:04:57.163Z,12.2
2022-12-27T17:20:06.334Z,10.9
2022-12-27T17:35:16.204Z,8.7
2022-12-27T17:50:25.737Z,8.2
2022-12-27T18:05:35.888Z,8.1
2022-12-27T18:20:45.689Z,7.5
2022-12-27T18:35:55.552Z,6.9
2022-12-27T18:51:05.181Z,7.3
2022-12-27T19:06:14.386Z,6.2
2022-12-27T19:21:24.379Z,4.2
2022-12-27T19:36:34.619Z,3.8
2022-12-27T19:51:43.877Z,4.6
2022-12-27T20:06:53.709Z,3.8
2022-12-27T20:22:05.077Z,4.1
2022-12-27T20:37:24.243Z,3.2
2022-12-27T20:52:35.002Z,2.6
2022-12-27T21:08:29.450Z,3
2022-12-27T21:23:39.385Z,3
2022-12-27T21:38:49.414Z,2.5
2022-12-27T21:53:58.523Z,2.4
2022-12-27T22:09:07.741Z,2.6
2022-12-27T22:24:17.676Z,2.2
2022-12-27T22:39:26.744Z,2.6
2022-12-27T22:55:07.275Z,2.5
2022-12-27T23:10:17.477Z,2.1
2022-12-27T23:25:26.622Z,2.7
2022-12-27T23:40:35.807Z,2.4
2022-12-27T23:55:45.003Z,2.6
